createdAt,value
2022-11-06T00:00:33.162Z,100.00
2022-11-06T00:03:01.802Z,100.00
2022-11-06T00:05:47.815Z,100.00
2022-11-06T00:08:16.237Z,100.00
2022-11-06T00:10:44.229Z,100.00
2022-11-06T00:13:13.379Z,100.00
2022-11-06T00:15:41.167Z,100.00
2022-11-06T00:18:08.912Z,100.00
2022-11-06T00:20:37.813Z,100.00
2022-11-06T00:23:05.630Z,100.00
2022-11-06T00:25:33.525Z,100.00
2022-11-06T00:28:01.322Z,100.00
2022-11-06T00:30:30.424Z,100.00
2022-11-06T00:32:59.403Z,100.00
2022-11-06T00:35:27.199Z,100.00
2022-11-06T00:37:56.072Z,100.00
2022-11-06T00:40:24.026Z,100.00
2022-11-06T00:42:56.199Z,100.00
2022-11-06T00:45:24.376Z,100.00
2022-11-06T00:47:53.643Z,100.00
2022-11-06T00:50:21.414Z,100.00
2022-11-06T00:52:49.201Z,100.00
2022-11-06T00:55:17.188Z,100.00
2022-11-06T00:57:45.096Z,100.00
2022-11-06T01:00:14.319Z,100.00
2022-11-06T01:02:42.307Z,100.00
2022-11-06T01:05:11.716Z,100.00
2022-11-06T01:07:40.103Z,100.00
2022-11-06T01:10:08.927Z,100.00
2022-11-06T01:12:36.803Z,100.00
2022-11-06T01:15:05.303Z,100.00
2022-11-06T01:17:33.154Z,100.00
2022-11-06T01:20:01.016Z,100.00
2022-11-06T01:22:30.195Z,100.00
2022-11-06T01:24:58.129Z,100.00
2022-11-06T01:27:27.303Z,100.00
2022-11-06T01:29:55.676Z,100.00
2022-11-06T01:32:23.611Z,100.00
2022-11-06T01:34:51.552Z,100.00
2022-11-06T01:37:19.637Z,100.00
2022-11-06T01:39:50.593Z,100.00
2022-11-06T01:42:21.204Z,100.00
2022-11-06T01:45:26.984Z,100.00
2022-11-06T01:47:54.923Z,100.00
2022-11-06T01:50:23.282Z,100.00
2022-11-06T01:52:52.734Z,100.00
2022-11-06T01:55:26.079Z,100.00
2022-11-06T01:57:56.060Z,100.00
2022-11-06T02:00:23.972Z,100.00
2022-11-06T02:02:52.453Z,100.00
2022-11-06T02:05:20.663Z,100.00
2022-11-06T02:07:49.381Z,100.00
2022-11-06T02:10:17.776Z,100.00
2022-11-06T02:13:04.615Z,100.00
2022-11-06T02:15:40.972Z,100.00
2022-11-06T02:18:30.211Z,100.00
2022-11-06T02:21:20.630Z,100.00
2022-11-06T02:24:04.580Z,100.00
2022-11-06T02:26:57.678Z,100.00
2022-11-06T02:29:32.663Z,100.00
2022-11-06T02:32:05.279Z,100.00
2022-11-06T02:34:34.996Z,100.00
2022-11-06T02:37:07.951Z,100.00
2022-11-06T02:39:40.683Z,100.00
2022-11-06T02:42:12.776Z,100.00
2022-11-06T02:44:41.683Z,100.00
2022-11-06T02:47:12.352Z,100.00
2022-11-06T02:49:44.943Z,100.00
2022-11-06T02:52:15.190Z,100.00
2022-11-06T02:54:48.742Z,100.00
2022-11-06T02:57:21.070Z,100.00
2022-11-06T02:59:53.425Z,100.00
2022-11-06T03:02:26.032Z,100.00
2022-11-06T03:04:59.656Z,100.00
2022-11-06T03:07:35.646Z,100.00
2022-11-06T03:10:03.916Z,100.00
2022-11-06T03:12:39.719Z,100.00
2022-11-06T03:15:15.828Z,100.00
2022-11-06T03:17:48.466Z,100.00
2022-11-06T03:20:22.520Z,100.00
2022-11-06T03:22:57.376Z,100.00
2022-11-06T03:25:29.353Z,100.00
2022-11-06T03:28:05.240Z,100.00
2022-11-06T03:30:37.638Z,100.00
2022-11-06T03:33:11.748Z,100.00
2022-11-06T03:35:45.312Z,100.00
2022-11-06T03:38:19.450Z,100.00
2022-11-06T03:40:52.621Z,100.00
2022-11-06T03:43:26.802Z,100.00
2022-11-06T03:45:57.137Z,100.00
2022-11-06T03:48:31.943Z,100.00
2022-11-06T03:51:05.510Z,100.00
2022-11-06T03:53:40.475Z,100.00
2022-11-06T03:56:14.827Z,100.00
2022-11-06T03:58:46.843Z,100.00
2022-11-06T04:01:19.512Z,100.00
2022-11-06T04:03:53.246Z,100.00
2022-11-06T04:06:27.288Z,100.00
2022-11-06T04:09:18.320Z,100.00
2022-11-06T04:12:05.573Z,100.00
2022-11-06T04:14:37.885Z,100.00
2022-11-06T04:17:11.320Z,100.00
2022-11-06T04:19:43.637Z,100.00
2022-11-06T04:22:32.979Z,100.00
2022-11-06T04:25:29.026Z,100.00
2022-11-06T04:28:10.029Z,100.00
2022-11-06T04:30:45.616Z,100.00
2022-11-06T04:33:19.898Z,100.00
2022-11-06T04:35:55.439Z,100.00
2022-11-06T04:38:32.599Z,100.00
2022-11-06T04:41:12.687Z,100.00
2022-11-06T04:43:45.797Z,100.00
2022-11-06T04:46:20.955Z,100.00
2022-11-06T04:48:50.280Z,100.00
2022-11-06T04:51:22.301Z,100.00
2022-11-06T04:53:52.370Z,100.00
2022-11-06T04:56:29.276Z,100.00
2022-11-06T04:58:57.556Z,100.00
2022-11-06T05:01:27.327Z,100.00
2022-11-06T05:03:55.290Z,100.00
2022-11-06T05:06:28.669Z,100.00
2022-11-06T05:08:59.058Z,100.00
2022-11-06T05:11:26.863Z,100.00
2022-11-06T05:13:54.687Z,100.00
2022-11-06T05:16:22.721Z,100.00
2022-11-06T05:18:51.946Z,100.00
2022-11-06T05:21:37.026Z,100.00
2022-11-06T05:24:05.659Z,100.00
2022-11-06T05:26:34.284Z,100.00
2022-11-06T05:29:02.439Z,100.00
2022-11-06T05:31:30.354Z,100.00
2022-11-06T05:33:59.667Z,100.00
2022-11-06T05:36:27.535Z,100.00
2022-11-06T05:38:56.218Z,100.00
2022-11-06T05:41:24.028Z,100.00
2022-11-06T05:43:52.024Z,100.00
2022-11-06T05:46:42.786Z,100.00
2022-11-06T05:49:10.455Z,100.00
2022-11-06T05:51:38.265Z,100.00
2022-11-06T05:54:06.179Z,100.00
2022-11-06T05:56:34.053Z,100.00
2022-11-06T05:59:01.946Z,100.00
2022-11-06T06:01:29.881Z,100.00
2022-11-06T06:03:57.742Z,100.00
2022-11-06T06:06:27.477Z,100.00
2022-11-06T06:08:55.365Z,100.00
2022-11-06T06:11:23.261Z,100.00
2022-11-06T06:13:51.163Z,100.00
2022-11-06T06:16:19.060Z,100.00
2022-11-06T06:18:49.423Z,100.00
2022-11-06T06:21:17.563Z,100.00
2022-11-06T06:23:46.996Z,100.00
2022-11-06T06:26:14.913Z,100.00
2022-11-06T06:28:42.694Z,100.00
2022-11-06T06:31:11.722Z,100.00
2022-11-06T06:33:39.525Z,100.00
2022-11-06T06:36:08.273Z,100.00
2022-11-06T06:38:36.079Z,100.00
2022-11-06T06:41:06.738Z,100.00
2022-11-06T06:43:34.920Z,100.00
2022-11-06T06:46:03.863Z,100.00
2022-11-06T06:48:33.322Z,100.00
2022-11-06T06:51:02.342Z,100.00
2022-11-06T06:53:30.816Z,100.00
2022-11-06T06:56:00.516Z,100.00
2022-11-06T06:58:30.414Z,100.00
2022-11-06T07:01:01.138Z,100.00
2022-11-06T07:03:29.181Z,100.00
2022-11-06T07:05:58.717Z,100.00
2022-11-06T07:08:27.260Z,100.00
2022-11-06T07:10:59.925Z,100.00
2022-11-06T07:13:35.596Z,100.00
2022-11-06T07:16:05.148Z,100.00
2022-11-06T07:18:33.364Z,100.00
2022-11-06T07:21:01.251Z,100.00
2022-11-06T07:23:29.083Z,100.00
2022-11-06T07:25:57.008Z,100.00
2022-11-06T07:28:24.807Z,100.00
2022-11-06T07:30:54.208Z,100.00
2022-11-06T07:33:21.990Z,100.00
2022-11-06T07:35:49.827Z,100.00
2022-11-06T07:38:17.673Z,100.00
2022-11-06T07:40:46.776Z,100.00
2022-11-06T07:43:18.050Z,100.00
2022-11-06T07:45:45.977Z,100.00
2022-11-06T07:48:15.395Z,100.00
2022-11-06T07:50:43.294Z,100.00
2022-11-06T07:53:11.441Z,100.00
2022-11-06T07:55:42.403Z,100.00
2022-11-06T07:58:10.574Z,100.00
2022-11-06T08:00:38.656Z,100.00
2022-11-06T08:03:06.592Z,100.00
2022-11-06T08:05:35.762Z,100.00
2022-11-06T08:08:03.700Z,100.00
2022-11-06T08:10:31.633Z,100.00
2022-11-06T08:13:00.648Z,100.00
2022-11-06T08:15:28.594Z,100.00
2022-11-06T08:17:56.377Z,100.00
2022-11-06T08:20:24.152Z,100.00
2022-11-06T08:22:53.322Z,100.00
2022-11-06T08:25:21.137Z,100.00
2022-11-06T08:27:48.977Z,100.00
2022-11-06T08:30:16.833Z,100.00
2022-11-06T08:32:44.991Z,100.00
2022-11-06T08:35:12.787Z,100.00
2022-11-06T08:37:41.052Z,100.00
2022-11-06T08:40:11.729Z,100.00
2022-11-06T08:42:39.599Z,100.00
2022-11-06T08:45:08.365Z,100.00
2022-11-06T08:47:36.183Z,100.00
2022-11-06T08:50:04.220Z,100.00
2022-11-06T08:52:34.206Z,100.00
2022-11-06T08:55:02.313Z,100.00
2022-11-06T08:57:31.502Z,100.00
2022-11-06T08:59:59.391Z,100.00
2022-11-06T09:02:28.496Z,100.00
2022-11-06T09:04:56.409Z,100.00
2022-11-06T09:07:24.232Z,100.00
2022-11-06T09:09:52.067Z,100.00
2022-11-06T09:12:19.981Z,100.00
2022-11-06T09:14:49.218Z,100.00
2022-11-06T09:17:17.336Z,100.00
2022-11-06T09:19:45.236Z,100.00
2022-11-06T09:22:13.121Z,100.00
2022-11-06T09:25:01.794Z,100.00
2022-11-06T09:27:29.017Z,100.00
2022-11-06T09:29:58.379Z,100.00
2022-11-06T09:32:26.201Z,100.00
2022-11-06T09:34:54.064Z,100.00
2022-11-06T09:37:22.006Z,100.00
2022-11-06T09:39:49.897Z,100.00
2022-11-06T09:42:29.156Z,100.00
2022-11-06T09:45:08.718Z,100.00
2022-11-06T09:47:42.562Z,100.00
2022-11-06T09:50:18.383Z,100.00
2022-11-06T09:52:50.225Z,100.00
2022-11-06T09:55:22.379Z,100.00
2022-11-06T09:57:55.905Z,100.00
2022-11-06T10:00:25.192Z,100.00
2022-11-06T10:02:56.368Z,100.00
2022-11-06T10:05:29.743Z,100.00
2022-11-06T10:07:59.373Z,100.00
2022-11-06T10:10:36.256Z,100.00
2022-11-06T10:13:27.606Z,100.00
2022-11-06T10:16:03.992Z,100.00
2022-11-06T10:18:43.455Z,100.00
2022-11-06T10:21:14.364Z,100.00
2022-11-06T10:23:48.808Z,100.00
2022-11-06T10:26:19.533Z,100.00
2022-11-06T10:29:08.588Z,100.00
2022-11-06T10:31:47.149Z,100.00
2022-11-06T10:34:19.024Z,100.00
2022-11-06T10:36:51.993Z,100.00
2022-11-06T10:39:23.592Z,100.00
2022-11-06T10:41:55.910Z,100.00
2022-11-06T10:44:28.292Z,100.00
2022-11-06T10:47:04.945Z,100.00
2022-11-06T10:49:41.146Z,100.00
2022-11-06T10:52:36.412Z,100.00
2022-11-06T10:55:22.515Z,100.00
2022-11-06T10:57:57.320Z,100.00
2022-11-06T11:00:25.582Z,100.00
2022-11-06T11:02:58.835Z,100.00
2022-11-06T11:05:28.792Z,100.00
2022-11-06T11:07:56.889Z,100.00
2022-11-06T11:10:30.993Z,100.00
2022-11-06T11:13:04.123Z,100.00
2022-11-06T11:15:44.776Z,100.00
2022-11-06T11:18:24.579Z,100.00
2022-11-06T11:21:04.972Z,100.00
2022-11-06T11:23:33.008Z,100.00
2022-11-06T11:26:20.367Z,100.00
2022-11-06T11:28:53.660Z,100.00
2022-11-06T11:31:28.358Z,100.00
2022-11-06T11:34:00.692Z,100.00
2022-11-06T11:36:48.926Z,100.00
2022-11-06T11:39:19.354Z,100.00
2022-11-06T11:41:47.285Z,100.00
2022-11-06T11:44:17.514Z,100.00
2022-11-06T11:46:51.315Z,100.00
2022-11-06T11:49:30.903Z,100.00
2022-11-06T11:52:00.898Z,100.00
2022-11-06T11:54:32.639Z,100.00
2022-11-06T11:57:06.599Z,100.00
2022-11-06T11:59:39.505Z,100.00
2022-11-06T12:02:15.994Z,100.00
2022-11-06T12:04:50.596Z,100.00
2022-11-06T12:07:27.245Z,100.00
2022-11-06T12:09:55.399Z,100.00
2022-11-06T12:12:26.098Z,100.00
2022-11-06T12:15:18.783Z,100.00
2022-11-06T12:17:52.448Z,100.00
2022-11-06T12:20:27.292Z,100.00
2022-11-06T12:22:59.078Z,100.00
2022-11-06T12:25:32.497Z,100.00
2022-11-06T12:28:03.403Z,100.00
2022-11-06T12:30:34.120Z,100.00
2022-11-06T12:33:07.431Z,100.00
2022-11-06T12:35:42.638Z,100.00
2022-11-06T12:38:20.469Z,100.00
2022-11-06T12:40:52.965Z,100.00
2022-11-06T12:43:28.414Z,100.00
2022-11-06T12:46:10.474Z,100.00
2022-11-06T12:48:59.901Z,100.00
2022-11-06T12:51:37.922Z,100.00
2022-11-06T12:54:09.334Z,100.00
2022-11-06T12:56:48.743Z,100.00
2022-11-06T12:59:42.577Z,100.00
2022-11-06T13:02:25.814Z,100.00
2022-11-06T13:05:00.422Z,100.00
2022-11-06T13:08:10.253Z,100.00
2022-11-06T13:10:45.943Z,100.00
2022-11-06T13:13:36.079Z,100.00
2022-11-06T13:16:15.268Z,100.00
2022-11-06T13:18:52.973Z,100.00
2022-11-06T13:21:26.671Z,100.00
2022-11-06T13:23:59.919Z,100.00
2022-11-06T13:26:36.262Z,100.00
2022-11-06T13:29:07.103Z,100.00
2022-11-06T13:31:39.794Z,100.00
2022-11-06T13:34:12.149Z,100.00
2022-11-06T13:36:40.165Z,100.00
2022-11-06T13:39:18.018Z,100.00
2022-11-06T13:41:45.752Z,100.00
2022-11-06T13:44:16.185Z,100.00
2022-11-06T13:46:55.668Z,100.00
2022-11-06T13:49:31.395Z,100.00
2022-11-06T13:52:02.124Z,100.00
2022-11-06T13:54:42.527Z,100.00
2022-11-06T13:57:46.962Z,100.00
2022-11-06T14:00:22.579Z,100.00
2022-11-06T14:03:29.114Z,100.00
2022-11-06T14:06:01.934Z,100.00
2022-11-06T14:08:33.194Z,100.00
2022-11-06T14:11:06.536Z,100.00
2022-11-06T14:13:36.893Z,100.00
2022-11-06T14:16:08.212Z,100.00
2022-11-06T14:18:36.846Z,100.00
2022-11-06T14:21:50.568Z,100.00
2022-11-06T14:24:40.113Z,100.00
2022-11-06T14:27:13.399Z,100.00
2022-11-06T14:30:00.377Z,100.00
2022-11-06T14:32:49.195Z,100.00
2022-11-06T14:35:50.865Z,100.00
2022-11-06T14:38:38.458Z,100.00
2022-11-06T14:41:51.356Z,100.00
2022-11-06T14:44:27.954Z,100.00
2022-11-06T14:46:59.468Z,100.00
2022-11-06T14:49:34.865Z,100.00
2022-11-06T14:52:05.962Z,100.00
2022-11-06T14:54:36.631Z,100.00
2022-11-06T14:57:05.172Z,100.00
2022-11-06T14:59:37.891Z,100.00
2022-11-06T15:02:18.301Z,100.00
2022-11-06T15:04:50.900Z,100.00
2022-11-06T15:08:03.121Z,100.00
2022-11-06T15:10:48.691Z,100.00
2022-11-06T15:13:25.737Z,100.00
2022-11-06T15:16:01.712Z,100.00
2022-11-06T15:18:32.834Z,100.00
2022-11-06T15:21:04.707Z,100.00
2022-11-06T15:23:38.132Z,100.00
2022-11-06T15:26:14.691Z,100.00
2022-11-06T15:28:47.823Z,100.00
2022-11-06T15:31:20.001Z,100.00
2022-11-06T15:33:56.233Z,100.00
2022-11-06T15:36:24.980Z,100.00
2022-11-06T15:38:52.855Z,100.00
2022-11-06T15:41:24.268Z,100.00
2022-11-06T15:43:55.683Z,100.00
2022-11-06T15:46:27.296Z,100.00
2022-11-06T15:49:09.686Z,100.00
2022-11-06T15:51:40.851Z,100.00
2022-11-06T15:54:14.344Z,100.00
2022-11-06T15:56:42.729Z,100.00
2022-11-06T15:59:13.641Z,100.00
2022-11-06T16:01:49.903Z,100.00
2022-11-06T16:04:21.583Z,100.00
2022-11-06T16:06:50.893Z,100.00
2022-11-06T16:09:21.442Z,100.00
2022-11-06T16:11:52.431Z,100.00
2022-11-06T16:14:21.034Z,100.00
2022-11-06T16:16:52.427Z,100.00
2022-11-06T16:19:29.600Z,100.00
2022-11-06T16:22:02.192Z,100.00
2022-11-06T16:24:33.874Z,100.00
2022-11-06T16:27:06.990Z,100.00
2022-11-06T16:29:35.636Z,100.00
2022-11-06T16:32:08.158Z,100.00
2022-11-06T16:34:41.904Z,100.00
2022-11-06T16:37:38.098Z,100.00
2022-11-06T16:40:23.078Z,100.00
2022-11-06T16:43:03.419Z,100.00
2022-11-06T16:45:31.696Z,100.00
2022-11-06T16:48:26.093Z,100.00
2022-11-06T16:50:56.476Z,100.00
2022-11-06T16:53:27.329Z,100.00
2022-11-06T16:55:57.297Z,100.00
2022-11-06T16:58:26.099Z,100.00
2022-11-06T17:00:59.575Z,100.00
2022-11-06T17:03:34.208Z,100.00
2022-11-06T17:06:02.281Z,100.00
2022-11-06T17:08:37.593Z,100.00
2022-11-06T17:11:26.045Z,100.00
2022-11-06T17:13:53.905Z,100.00
2022-11-06T17:16:23.635Z,100.00
2022-11-06T17:18:53.707Z,100.00
2022-11-06T17:21:23.907Z,100.00
2022-11-06T17:23:53.565Z,100.00
2022-11-06T17:26:25.445Z,100.00
2022-11-06T17:28:53.773Z,100.00
2022-11-06T17:31:23.875Z,100.00
2022-11-06T17:33:53.798Z,100.00
2022-11-06T17:36:25.035Z,100.00
2022-11-06T17:38:53.744Z,100.00
2022-11-06T17:41:30.610Z,100.00
2022-11-06T17:43:58.856Z,100.00
2022-11-06T17:46:28.224Z,100.00
2022-11-06T17:48:58.019Z,100.00
2022-11-06T17:51:52.312Z,100.00
2022-11-06T17:54:21.759Z,100.00
2022-11-06T17:56:51.336Z,100.00
2022-11-06T17:59:19.873Z,100.00
2022-11-06T18:01:50.458Z,100.00
2022-11-06T18:04:20.668Z,100.00
2022-11-06T18:06:49.822Z,100.00
2022-11-06T18:09:17.962Z,100.00
2022-11-06T18:11:50.850Z,100.00
2022-11-06T18:14:19.439Z,100.00
2022-11-06T18:16:48.241Z,100.00
2022-11-06T18:19:18.081Z,100.00
2022-11-06T18:21:47.361Z,100.00
2022-11-06T18:24:15.791Z,100.00
2022-11-06T18:26:43.567Z,100.00
2022-11-06T18:29:12.696Z,100.00
2022-11-06T18:31:40.770Z,100.00
2022-11-06T18:34:09.033Z,100.00
2022-11-06T18:36:37.099Z,100.00
2022-11-06T18:39:06.814Z,100.00
2022-11-06T18:41:35.664Z,100.00
2022-11-06T18:44:04.001Z,100.00
2022-11-06T18:46:31.922Z,100.00
2022-11-06T18:49:00.133Z,100.00
2022-11-06T18:51:34.999Z,100.00
2022-11-06T18:54:07.867Z,100.00
2022-11-06T18:56:37.330Z,100.00
2022-11-06T18:59:06.636Z,100.00
2022-11-06T19:01:35.827Z,100.00
2022-11-06T19:04:04.791Z,100.00
2022-11-06T19:06:33.202Z,100.00
2022-11-06T19:09:00.990Z,100.00
2022-11-06T19:11:30.248Z,100.00
2022-11-06T19:13:58.131Z,100.00
2022-11-06T19:16:26.216Z,100.00
2022-11-06T19:21:29.894Z,100.00
2022-11-06T19:24:03.472Z,100.00
2022-11-06T19:26:35.366Z,100.00
2022-11-06T19:29:03.671Z,100.00
2022-11-06T19:31:33.982Z,100.00
2022-11-06T19:34:02.966Z,100.00
2022-11-06T19:36:31.562Z,100.00
2022-11-06T19:38:59.959Z,100.00
2022-11-06T19:41:53.757Z,100.00
2022-11-06T19:44:21.984Z,100.00
2022-11-06T19:46:49.870Z,100.00
2022-11-06T19:49:18.214Z,100.00
2022-11-06T19:51:46.039Z,100.00
2022-11-06T19:54:13.884Z,100.00
2022-11-06T19:57:29.254Z,100.00
2022-11-06T19:59:31.008Z,100.00
2022-11-06T20:01:58.961Z,100.00
2022-11-06T20:04:26.913Z,100.00
2022-11-06T20:06:54.852Z,100.00
2022-11-06T20:09:22.779Z,100.00
2022-11-06T20:11:52.429Z,100.00
2022-11-06T20:14:21.747Z,100.00
2022-11-06T20:16:51.258Z,100.00
2022-11-06T20:19:19.403Z,100.00
2022-11-06T20:21:47.331Z,100.00
2022-11-06T20:24:15.474Z,100.00
2022-11-06T20:26:43.459Z,100.00
2022-11-06T20:29:11.472Z,100.00
2022-11-06T20:31:39.290Z,100.00
2022-11-06T20:34:08.494Z,100.00
2022-11-06T20:36:36.604Z,100.00
2022-11-06T20:39:05.255Z,100.00
2022-11-06T20:41:33.123Z,100.00
2022-11-06T20:44:01.025Z,100.00
2022-11-06T20:46:28.923Z,100.00
2022-11-06T20:48:57.818Z,100.00
2022-11-06T20:51:29.316Z,100.00
2022-11-06T20:53:57.270Z,100.00
2022-11-06T20:56:26.154Z,100.00
2022-11-06T20:58:54.672Z,100.00
2022-11-06T21:01:24.809Z,100.00
2022-11-06T21:03:53.519Z,100.00
2022-11-06T21:06:24.224Z,100.00
2022-11-06T21:08:53.976Z,100.00
2022-11-06T21:11:23.865Z,100.00
2022-11-06T21:13:54.402Z,100.00
2022-11-06T21:16:24.549Z,100.00
2022-11-06T21:18:53.203Z,100.00
2022-11-06T21:21:22.828Z,100.00
2022-11-06T21:23:52.008Z,100.00
2022-11-06T21:26:23.047Z,100.00
2022-11-06T21:28:51.293Z,100.00
2022-11-06T21:31:24.089Z,100.00
2022-11-06T21:33:53.524Z,100.00
2022-11-06T21:36:25.166Z,100.00
2022-11-06T21:38:54.212Z,100.00
2022-11-06T21:41:25.654Z,100.00
2022-11-06T21:43:53.830Z,94.83
2022-11-06T21:46:22.069Z,96.00
2022-11-06T21:48:50.728Z,85.49
2022-11-06T21:51:22.718Z,88.80
2022-11-06T21:54:11.394Z,87.10
2022-11-06T21:56:42.025Z,93.51
2022-11-06T21:59:13.591Z,95.41
2022-11-06T22:01:42.225Z,98.74
2022-11-06T22:04:11.472Z,100.00
2022-11-06T22:06:41.357Z,100.00
2022-11-06T22:09:10.005Z,100.00
2022-11-06T22:11:40.849Z,100.00
2022-11-06T22:14:12.238Z,100.00
2022-11-06T22:16:42.158Z,100.00
2022-11-06T22:19:11.209Z,100.00
2022-11-06T22:21:41.094Z,100.00
2022-11-06T22:24:09.740Z,100.00
2022-11-06T22:26:37.814Z,100.00
2022-11-06T22:29:10.275Z,100.00
2022-11-06T22:31:38.344Z,100.00
2022-11-06T22:34:06.281Z,100.00
2022-11-06T22:36:34.141Z,100.00
2022-11-06T22:39:06.171Z,100.00
2022-11-06T22:41:33.952Z,100.00
2022-11-06T22:44:02.389Z,100.00
2022-11-06T22:46:32.001Z,100.00
2022-11-06T22:48:59.878Z,100.00
2022-11-06T22:51:29.140Z,100.00
2022-11-06T22:53:57.384Z,100.00
2022-11-06T22:56:26.639Z,100.00
2022-11-06T22:58:55.308Z,100.00
2022-11-06T23:01:24.192Z,100.00
2022-11-06T23:03:56.583Z,100.00
2022-11-06T23:06:25.157Z,100.00
2022-11-06T23:08:53.247Z,100.00
2022-11-06T23:11:23.652Z,100.00
2022-11-06T23:13:51.918Z,100.00
2022-11-06T23:16:43.532Z,100.00
2022-11-06T23:19:14.883Z,100.00
2022-11-06T23:21:43.641Z,100.00
2022-11-06T23:24:12.064Z,100.00
2022-11-06T23:26:41.384Z,100.00
2022-11-06T23:29:09.385Z,100.00
2022-11-06T23:31:37.190Z,100.00
2022-11-06T23:34:04.993Z,100.00
2022-11-06T23:36:35.259Z,100.00
2022-11-06T23:39:03.073Z,100.00
2022-11-06T23:41:46.602Z,100.00
2022-11-06T23:44:32.300Z,100.00
2022-11-06T23:47:00.397Z,100.00
2022-11-06T23:49:28.317Z,100.00
2022-11-06T23:51:57.447Z,100.00
2022-11-06T23:54:26.366Z,100.00
2022-11-06T23:56:54.322Z,100.00
2022-11-06T23:59:22.322Z,100.00
